createdAt,value
2022-10-19T00:01:54.499Z,58321.06
2022-10-19T00:04:20.899Z,58213.44
2022-10-19T00:06:47.328Z,58182.38
2022-10-19T00:09:17.112Z,58209.28
2022-10-19T00:11:47.009Z,58157.56
2022-10-19T00:14:16.650Z,58091.31
2022-10-19T00:16:44.134Z,58103.72
2022-10-19T00:19:16.803Z,58099.59
2022-10-19T00:21:43.265Z,58101.66
2022-10-19T00:24:09.910Z,58099.59
2022-10-19T00:26:36.278Z,58027.16
2022-10-19T00:29:03.296Z,58093.38
2022-10-19T00:31:29.716Z,58118.22
2022-10-19T00:33:57.254Z,58047.84
2022-10-19T00:36:26.473Z,58027.16
2022-10-19T00:38:53.627Z,58023.00
2022-10-19T00:41:22.033Z,58132.72
2022-10-19T00:43:53.095Z,58035.44
2022-10-19T00:46:19.395Z,58080.97
2022-10-19T00:48:45.875Z,58054.06
2022-10-19T00:51:12.518Z,57994.03
2022-10-19T00:53:39.079Z,58031.28
2022-10-19T00:56:10.021Z,58060.25
2022-10-19T00:58:36.437Z,58087.19
2022-10-19T01:01:04.741Z,58244.47
2022-10-19T01:03:32.051Z,58029.22
2022-10-19T01:05:59.471Z,58066.47
2022-10-19T01:08:25.925Z,58002.31
2022-10-19T01:11:08.731Z,58070.63
2022-10-19T01:13:56.206Z,58058.19
2022-10-19T01:16:36.610Z,58064.41
2022-10-19T01:19:18.960Z,58020.94
2022-10-19T01:21:50.079Z,58093.38
2022-10-19T01:24:17.826Z,58074.75
2022-10-19T01:26:53.303Z,58085.09
2022-10-19T01:29:53.708Z,58147.19
2022-10-19T01:32:32.822Z,58076.81
2022-10-19T01:35:12.306Z,58122.38
2022-10-19T01:37:48.860Z,58033.34
2022-10-19T01:40:21.452Z,58097.53
2022-10-19T01:42:56.487Z,58066.47
2022-10-19T01:45:27.623Z,58083.03
2022-10-19T01:48:03.164Z,58080.97
2022-10-19T01:50:39.407Z,58093.38
2022-10-19T01:53:07.742Z,58097.53
2022-10-19T01:55:34.283Z,58138.91
2022-10-19T01:58:07.113Z,58066.47
2022-10-19T02:00:37.592Z,58107.88
2022-10-19T02:03:05.592Z,58068.53
2022-10-19T02:05:33.111Z,58058.19
2022-10-19T02:08:02.544Z,58064.41
2022-10-19T02:10:29.875Z,58049.91
2022-10-19T02:12:56.672Z,58000.25
2022-10-19T02:15:25.211Z,58027.16
2022-10-19T02:17:53.115Z,58147.19
2022-10-19T02:20:20.253Z,58333.50
2022-10-19T02:22:46.851Z,58085.09
2022-10-19T02:25:13.446Z,58018.88
2022-10-19T02:27:43.217Z,58066.47
2022-10-19T02:30:14.694Z,58045.78
2022-10-19T02:32:42.005Z,58056.13
2022-10-19T02:35:08.863Z,58049.91
2022-10-19T02:40:02.971Z,58039.56
2022-10-19T02:42:34.949Z,58045.78
2022-10-19T02:45:13.619Z,58058.19
2022-10-19T02:47:45.259Z,58060.25
2022-10-19T02:50:12.915Z,58058.19
2022-10-19T02:52:40.122Z,58087.19
2022-10-19T02:55:07.497Z,58074.75
2022-10-19T02:57:34.172Z,58085.09
2022-10-19T03:00:00.836Z,58345.91
2022-10-19T03:02:27.313Z,58128.56
2022-10-19T03:04:53.723Z,58213.44
2022-10-19T03:07:21.436Z,58215.50
2022-10-19T03:09:47.928Z,58261.03
2022-10-19T03:12:14.899Z,58219.66
2022-10-19T03:14:41.545Z,58234.13
2022-10-19T03:17:08.360Z,58221.72
2022-10-19T03:19:35.675Z,58256.91
2022-10-19T03:22:02.112Z,58213.44
2022-10-19T03:24:29.930Z,58236.19
2022-10-19T03:26:56.678Z,58252.75
2022-10-19T03:29:23.343Z,58325.22
2022-10-19T03:31:49.765Z,58182.38
2022-10-19T03:34:16.178Z,58308.66
2022-10-19T03:36:42.675Z,58267.25
2022-10-19T03:39:13.636Z,58269.31
2022-10-19T03:41:40.078Z,58258.97
2022-10-19T03:44:07.950Z,58267.25
2022-10-19T03:46:35.433Z,58503.22
2022-10-19T03:49:02.014Z,58559.13
2022-10-19T03:51:29.746Z,58455.63
2022-10-19T03:54:01.500Z,58207.22
2022-10-19T03:56:29.058Z,58196.88
2022-10-19T03:58:56.825Z,58211.38
2022-10-19T04:01:31.991Z,58221.72
2022-10-19T04:04:01.012Z,58248.63
2022-10-19T04:06:30.141Z,58215.50
2022-10-19T04:08:56.939Z,58201.00
2022-10-19T04:11:25.882Z,58203.09
2022-10-19T04:13:53.239Z,58397.66
2022-10-19T04:16:20.497Z,58167.91
2022-10-19T04:18:47.152Z,58153.41
2022-10-19T04:21:23.865Z,58196.88
2022-10-19T04:23:52.488Z,58176.19
2022-10-19T04:26:19.798Z,58182.38
2022-10-19T04:28:46.699Z,58157.56
2022-10-19T04:31:13.600Z,58169.97
2022-10-19T04:33:40.532Z,58188.59
2022-10-19T04:36:10.486Z,58486.66
2022-10-19T04:38:37.055Z,58105.81
2022-10-19T04:41:09.400Z,58176.19
2022-10-19T04:43:36.190Z,58430.78
2022-10-19T04:46:05.464Z,58138.91
2022-10-19T04:48:32.149Z,58109.94
2022-10-19T04:50:58.532Z,58335.56
2022-10-19T04:55:56.323Z,58250.69
2022-10-19T04:58:22.895Z,58141.00
2022-10-19T05:00:49.762Z,58174.09
2022-10-19T05:03:17.181Z,58186.53
2022-10-19T05:05:43.586Z,58097.53
2022-10-19T05:08:10.488Z,58068.53
2022-10-19T05:10:37.831Z,58190.66
2022-10-19T05:13:04.739Z,58107.88
2022-10-19T05:15:31.287Z,58159.63
2022-10-19T05:17:57.869Z,58159.63
2022-10-19T05:20:24.518Z,58188.59
2022-10-19T05:22:51.241Z,58141.00
2022-10-19T05:25:17.982Z,58174.09
2022-10-19T05:27:44.390Z,58163.75
2022-10-19T05:30:10.910Z,58188.59
2022-10-19T05:32:37.267Z,58163.75
2022-10-19T05:35:03.826Z,58159.63
2022-10-19T05:37:30.235Z,58240.34
2022-10-19T05:39:56.641Z,58159.63
2022-10-19T05:42:23.095Z,58395.59
2022-10-19T05:44:49.550Z,58091.31
2022-10-19T05:47:16.141Z,58134.78
2022-10-19T05:49:42.532Z,58136.84
2022-10-19T05:52:08.925Z,58105.81
2022-10-19T05:54:36.803Z,58109.94
2022-10-19T05:57:03.508Z,58136.84
2022-10-19T05:59:29.965Z,58097.53
2022-10-19T06:01:56.513Z,58052.00
2022-10-19T06:04:22.944Z,58035.44
2022-10-19T06:06:49.369Z,58045.78
2022-10-19T06:09:15.789Z,58041.63
2022-10-19T06:11:42.968Z,58068.53
2022-10-19T06:14:12.924Z,58031.28
2022-10-19T06:16:39.660Z,58066.47
2022-10-19T06:19:06.137Z,58072.69
2022-10-19T06:21:33.362Z,58070.63
2022-10-19T06:24:02.745Z,58163.75
2022-10-19T06:26:30.401Z,58474.25
2022-10-19T06:29:00.239Z,58271.41
2022-10-19T06:31:31.709Z,58093.38
2022-10-19T06:33:58.482Z,58112.00
2022-10-19T06:36:27.016Z,58176.19
2022-10-19T06:38:53.660Z,58507.38
2022-10-19T06:41:20.686Z,58178.25
2022-10-19T06:43:51.122Z,58167.91
2022-10-19T06:46:20.490Z,58258.97
2022-10-19T06:48:55.100Z,58180.31
2022-10-19T06:51:21.944Z,58240.34
2022-10-19T06:53:50.590Z,58258.97
2022-10-19T06:56:24.404Z,58217.56
2022-10-19T06:58:50.813Z,58240.34
2022-10-19T07:01:17.329Z,58345.91
2022-10-19T07:03:43.840Z,58263.13
2022-10-19T07:06:11.805Z,58246.56
2022-10-19T07:08:40.327Z,58290.03
2022-10-19T07:11:09.169Z,58294.16
2022-10-19T07:13:35.792Z,58395.59
2022-10-19T07:16:06.916Z,58283.81
2022-10-19T07:18:35.372Z,58327.28
2022-10-19T07:21:03.867Z,58335.56
2022-10-19T07:23:31.631Z,58370.75
2022-10-19T07:26:02.149Z,58360.41
2022-10-19T07:28:29.851Z,58782.69
2022-10-19T07:30:56.393Z,58366.59
2022-10-19T07:33:23.113Z,58424.56
2022-10-19T07:35:49.628Z,58526.00
2022-10-19T07:38:16.021Z,58410.09
2022-10-19T07:40:44.922Z,58470.13
2022-10-19T07:43:13.773Z,58430.78
2022-10-19T07:45:40.145Z,58484.59
2022-10-19T07:48:06.816Z,58523.94
2022-10-19T07:50:33.300Z,58548.78
2022-10-19T07:52:59.685Z,58571.53
2022-10-19T07:55:26.091Z,58648.13
2022-10-19T07:57:52.503Z,58557.06
2022-10-19T08:00:18.990Z,58697.81
2022-10-19T08:02:57.748Z,58672.97
2022-10-19T08:05:26.517Z,58730.94
2022-10-19T08:07:52.990Z,58975.22
2022-10-19T08:10:19.365Z,58859.28
2022-10-19T08:12:45.776Z,58921.41
2022-10-19T08:15:12.157Z,58950.38
2022-10-19T08:17:39.671Z,58917.25
2022-10-19T08:20:06.841Z,59000.06
2022-10-19T08:22:34.060Z,59107.72
2022-10-19T08:25:00.783Z,59076.69
2022-10-19T08:27:27.218Z,59281.66
2022-10-19T08:29:53.671Z,59242.31
2022-10-19T08:32:20.243Z,59116.00
2022-10-19T08:34:46.669Z,59225.75
2022-10-19T08:37:25.796Z,59339.63
2022-10-19T08:39:59.451Z,59320.97
2022-10-19T08:42:43.578Z,59323.06
2022-10-19T08:45:25.860Z,59412.09
2022-10-19T08:48:00.928Z,59383.09
2022-10-19T08:50:38.623Z,59385.16
2022-10-19T08:53:08.376Z,59521.81
2022-10-19T08:55:51.923Z,59478.34
2022-10-19T08:58:21.294Z,59501.13
2022-10-19T09:01:07.248Z,59561.16
2022-10-19T09:03:55.320Z,59465.91
2022-10-19T09:06:31.650Z,59552.88
2022-10-19T09:08:58.552Z,59600.50
2022-10-19T09:11:28.524Z,59588.09
2022-10-19T09:14:06.170Z,59617.06
2022-10-19T09:16:34.690Z,59681.25
2022-10-19T09:19:01.135Z,59728.88
2022-10-19T09:21:47.334Z,59687.47
2022-10-19T09:24:21.717Z,59629.50
2022-10-19T09:26:53.583Z,59718.53
2022-10-19T09:29:37.910Z,59755.81
2022-10-19T09:32:19.692Z,59795.16
2022-10-19T09:34:58.854Z,59952.53
2022-10-19T09:37:26.739Z,59898.69
2022-10-19T09:39:55.591Z,59969.09
2022-10-19T09:42:32.964Z,60064.34
2022-10-19T09:45:07.339Z,59875.91
2022-10-19T09:47:40.962Z,60006.38
2022-10-19T09:50:23.576Z,60060.22
2022-10-19T09:52:52.327Z,60165.81
2022-10-19T09:55:44.206Z,60076.78
2022-10-19T09:58:13.688Z,60058.16
2022-10-19T10:00:42.879Z,60008.44
2022-10-19T10:03:26.677Z,60010.50
2022-10-19T10:05:53.683Z,60097.50
2022-10-19T10:08:22.164Z,60217.59
2022-10-19T10:11:14.170Z,60093.34
2022-10-19T10:13:42.939Z,60099.56
2022-10-19T10:16:13.728Z,60203.09
2022-10-19T10:18:59.213Z,60201.03
2022-10-19T10:21:31.958Z,60238.31
2022-10-19T10:24:00.820Z,60232.09
2022-10-19T10:26:27.787Z,60250.75
2022-10-19T10:28:57.807Z,60325.28
2022-10-19T10:31:28.930Z,60393.63
2022-10-19T10:34:11.163Z,60360.50
2022-10-19T10:36:51.391Z,60420.56
2022-10-19T10:39:17.900Z,60225.88
2022-10-19T10:41:45.102Z,60783.00
2022-10-19T10:44:20.126Z,60457.84
2022-10-19T10:46:55.896Z,60946.63
2022-10-19T10:49:34.171Z,60577.97
2022-10-19T10:52:05.305Z,60470.25
2022-10-19T10:54:33.089Z,60611.09
2022-10-19T10:57:12.790Z,60683.59
2022-10-19T11:00:01.168Z,60716.72
2022-10-19T11:02:41.353Z,60747.81
2022-10-19T11:05:31.386Z,60689.81
2022-10-19T11:08:12.532Z,60644.25
2022-10-19T11:11:00.653Z,60652.53
2022-10-19T11:13:39.074Z,60575.88
2022-10-19T11:16:24.797Z,60362.56
2022-10-19T11:19:19.035Z,60443.34
2022-10-19T11:21:51.710Z,60582.09
2022-10-19T11:24:45.102Z,60733.31
2022-10-19T11:27:28.653Z,60758.16
2022-10-19T11:30:09.340Z,60629.75
2022-10-19T11:33:09.755Z,60472.34
2022-10-19T11:35:52.741Z,60561.41
2022-10-19T11:38:40.348Z,60619.38
2022-10-19T11:41:18.565Z,60700.16
2022-10-19T11:43:57.560Z,60789.22
2022-10-19T11:46:42.971Z,60532.41
2022-10-19T11:49:15.956Z,60482.69
2022-10-19T11:51:57.540Z,60652.53
2022-10-19T11:54:27.117Z,60704.31
2022-10-19T11:57:04.737Z,60737.44
2022-10-19T11:59:48.945Z,60754.00
2022-10-19T12:02:47.596Z,60635.94
2022-10-19T12:05:37.455Z,60706.38
2022-10-19T12:08:22.560Z,60619.38
2022-10-19T12:11:20.656Z,60816.16
2022-10-19T12:14:14.106Z,60627.66
2022-10-19T12:16:43.021Z,60644.25
2022-10-19T12:19:17.706Z,60536.53
2022-10-19T12:21:44.743Z,60590.38
2022-10-19T12:24:15.308Z,60646.31
2022-10-19T12:26:42.446Z,60600.75
2022-10-19T12:29:32.336Z,60474.41
2022-10-19T12:31:59.943Z,60519.97
2022-10-19T12:34:35.509Z,60613.16
2022-10-19T12:37:25.905Z,60791.28
2022-10-19T12:40:00.754Z,60884.50
2022-10-19T12:42:51.646Z,60909.34
2022-10-19T12:45:36.730Z,60857.56
2022-10-19T12:48:09.228Z,60644.25
2022-10-19T12:50:50.825Z,60801.66
2022-10-19T12:53:39.302Z,61027.41
2022-10-19T12:56:17.609Z,61029.50
2022-10-19T12:58:46.716Z,61068.84
2022-10-19T13:01:35.634Z,60942.50
2022-10-19T13:04:20.602Z,60936.28
2022-10-19T13:06:51.622Z,61066.78
2022-10-19T13:09:30.764Z,60954.94
2022-10-19T13:12:19.479Z,61075.06
2022-10-19T13:14:59.875Z,60938.34
2022-10-19T13:17:41.058Z,60948.72
2022-10-19T13:20:13.209Z,61141.34
2022-10-19T13:22:40.507Z,61023.28
2022-10-19T13:25:16.072Z,61037.78
2022-10-19T13:27:43.588Z,60986.00
2022-10-19T13:30:44.176Z,61201.41
2022-10-19T13:33:35.291Z,61166.22
2022-10-19T13:36:02.421Z,61112.34
2022-10-19T13:38:33.106Z,61027.41
2022-10-19T13:41:04.878Z,61460.38
2022-10-19T13:43:55.202Z,60996.34
2022-10-19T13:46:30.616Z,61000.50
2022-10-19T13:49:26.695Z,61137.22
2022-10-19T13:52:03.699Z,60928.00
2022-10-19T13:54:54.845Z,60913.50
2022-10-19T13:57:40.004Z,60826.50
2022-10-19T14:00:18.094Z,60830.66
2022-10-19T14:03:04.396Z,60818.22
2022-10-19T14:08:28.825Z,60969.44
2022-10-19T14:11:04.075Z,60832.72
2022-10-19T14:13:30.536Z,60780.94
2022-10-19T14:15:58.556Z,60938.34
2022-10-19T14:18:29.540Z,60950.78
2022-10-19T14:21:03.045Z,60741.59
2022-10-19T14:23:39.714Z,60551.03
2022-10-19T14:26:20.510Z,60333.56
2022-10-19T14:28:52.028Z,60302.50
2022-10-19T14:31:22.313Z,60346.00
2022-10-19T14:34:00.382Z,60300.44
2022-10-19T14:36:35.191Z,60236.25
2022-10-19T14:39:02.018Z,60167.91
2022-10-19T14:41:28.438Z,60275.59
2022-10-19T14:43:56.396Z,60271.44
2022-10-19T14:46:33.897Z,60244.53
2022-10-19T14:49:03.076Z,60219.66
2022-10-19T14:51:43.154Z,60155.47
2022-10-19T14:54:15.296Z,60227.97
2022-10-19T14:56:52.394Z,60213.47
2022-10-19T14:59:30.870Z,60107.84
2022-10-19T15:02:02.638Z,60070.56
2022-10-19T15:04:32.002Z,60014.66
2022-10-19T15:07:00.118Z,60022.94
2022-10-19T15:09:37.326Z,59952.53
2022-10-19T15:12:17.081Z,60018.78
2022-10-19T15:14:44.107Z,60010.50
2022-10-19T15:17:31.199Z,60124.41
2022-10-19T15:20:01.072Z,60120.28
2022-10-19T15:22:30.950Z,60356.34
2022-10-19T15:25:00.387Z,60389.50
2022-10-19T15:27:37.939Z,60445.41
2022-10-19T15:30:20.993Z,60395.72
2022-10-19T15:32:51.337Z,60298.38
2022-10-19T15:35:38.653Z,60314.94
2022-10-19T15:38:14.533Z,60294.22
2022-10-19T15:40:42.981Z,60213.47
2022-10-19T15:43:34.208Z,60169.97
2022-10-19T15:46:13.423Z,60122.34
2022-10-19T15:48:49.992Z,60066.44
2022-10-19T15:51:25.016Z,60002.22
2022-10-19T15:53:55.993Z,59888.34
2022-10-19T15:56:22.866Z,59853.13
2022-10-19T15:58:50.379Z,59788.94
2022-10-19T16:01:22.482Z,59569.44
2022-10-19T16:03:49.249Z,59770.31
2022-10-19T16:06:17.215Z,59600.50
2022-10-19T16:08:47.096Z,59633.63
2022-10-19T16:11:18.771Z,59521.81
2022-10-19T16:13:45.606Z,59606.72
2022-10-19T16:16:32.386Z,59521.81
2022-10-19T16:18:59.426Z,59550.81
2022-10-19T16:21:31.806Z,59519.75
2022-10-19T16:23:58.393Z,59490.78
2022-10-19T16:26:26.191Z,59414.16
2022-10-19T16:28:54.406Z,59439.00
2022-10-19T16:31:21.096Z,59296.13
2022-10-19T16:33:47.535Z,59285.78
2022-10-19T16:36:14.043Z,59260.94
2022-10-19T16:38:40.479Z,59308.56
2022-10-19T16:41:09.426Z,59244.38
2022-10-19T16:43:36.358Z,59140.84
2022-10-19T16:46:04.053Z,59194.69
2022-10-19T16:48:31.056Z,59151.22
2022-10-19T16:51:06.681Z,59173.97
2022-10-19T16:53:34.148Z,59169.84
2022-10-19T16:56:05.919Z,59182.25
2022-10-19T16:58:32.347Z,59567.38
2022-10-19T17:01:01.681Z,59163.63
2022-10-19T17:03:28.663Z,59169.84
2022-10-19T17:05:55.075Z,59082.88
2022-10-19T17:08:23.893Z,59569.44
2022-10-19T17:10:52.807Z,59151.22
2022-10-19T17:13:19.732Z,59107.72
2022-10-19T17:15:46.107Z,59180.19
2022-10-19T17:18:12.576Z,59074.59
2022-10-19T17:20:39.095Z,59103.59
2022-10-19T17:23:05.474Z,59298.22
2022-10-19T17:25:31.881Z,59151.22
2022-10-19T17:27:58.277Z,59004.22
2022-10-19T17:30:24.752Z,59082.88
2022-10-19T17:32:51.124Z,59145.00
2022-10-19T17:35:17.525Z,59068.41
2022-10-19T17:37:43.898Z,58950.38
2022-10-19T17:40:10.661Z,59093.25
2022-10-19T17:42:37.100Z,59051.84
2022-10-19T17:45:04.710Z,59020.78
2022-10-19T17:47:31.255Z,59132.56
2022-10-19T17:49:57.716Z,59014.56
2022-10-19T17:52:24.096Z,59066.31
2022-10-19T17:55:11.308Z,59070.47
2022-10-19T17:57:37.325Z,59020.78
2022-10-19T18:00:06.984Z,58993.88
2022-10-19T18:02:33.880Z,59053.91
2022-10-19T18:05:00.503Z,58969.03
2022-10-19T18:07:26.913Z,58998.00
2022-10-19T18:09:53.348Z,58958.66
2022-10-19T18:12:19.776Z,58987.66
2022-10-19T18:14:46.139Z,58925.53
2022-10-19T18:17:12.520Z,58991.78
2022-10-19T18:19:38.932Z,59256.81
2022-10-19T18:22:05.334Z,58964.88
2022-10-19T18:24:32.849Z,58956.59
2022-10-19T18:26:59.679Z,58884.13
2022-10-19T18:29:26.668Z,58919.34
2022-10-19T18:31:53.316Z,58921.41
2022-10-19T18:34:22.618Z,58853.09
2022-10-19T18:36:49.936Z,58863.44
2022-10-19T18:39:17.030Z,58911.06
2022-10-19T18:41:45.826Z,58890.34
2022-10-19T18:44:13.131Z,58851.00
2022-10-19T18:46:39.580Z,58857.22
2022-10-19T18:49:08.298Z,58882.06
2022-10-19T18:51:35.293Z,58822.03
2022-10-19T18:54:01.807Z,58836.53
2022-10-19T18:56:29.377Z,58784.78
2022-10-19T18:58:56.384Z,58768.22
2022-10-19T19:01:27.562Z,58793.06
2022-10-19T19:03:56.826Z,58795.13
2022-10-19T19:06:29.343Z,58832.38
2022-10-19T19:08:56.911Z,58826.16
2022-10-19T19:11:29.655Z,58772.34
2022-10-19T19:14:03.783Z,58764.06
2022-10-19T19:16:33.575Z,58741.28
2022-10-19T19:19:00.258Z,58724.72
2022-10-19T19:21:28.787Z,58730.94
2022-10-19T19:23:56.202Z,58726.81
2022-10-19T19:26:26.207Z,58753.72
2022-10-19T19:28:52.579Z,58780.63
2022-10-19T19:31:19.224Z,58581.91
2022-10-19T19:33:47.549Z,58689.53
2022-10-19T19:36:15.397Z,58656.41
2022-10-19T19:38:42.220Z,58639.84
2022-10-19T19:41:11.412Z,58586.03
2022-10-19T19:43:38.544Z,58658.50
2022-10-19T19:46:09.392Z,58685.41
2022-10-19T19:48:36.487Z,58629.50
2022-10-19T19:51:02.938Z,58602.59
2022-10-19T19:53:29.434Z,58565.34
2022-10-19T19:55:55.821Z,58633.66
2022-10-19T19:58:22.189Z,58488.75
2022-10-19T20:00:48.663Z,58559.13
2022-10-19T20:03:15.779Z,58577.75
2022-10-19T20:05:42.224Z,58790.97
2022-10-19T20:08:08.909Z,58608.81
2022-10-19T20:10:42.340Z,58528.06
2022-10-19T20:13:09.098Z,58554.97
2022-10-19T20:15:38.972Z,58528.06
2022-10-19T20:18:05.951Z,58546.69
2022-10-19T20:20:32.340Z,58532.22
2022-10-19T20:22:58.737Z,58480.47
2022-10-19T20:25:25.240Z,58519.78
2022-10-19T20:27:51.685Z,58463.91
2022-10-19T20:30:18.151Z,58507.38
2022-10-19T20:32:44.527Z,58515.66
2022-10-19T20:35:11.101Z,58875.84
2022-10-19T20:37:37.752Z,58463.91
2022-10-19T20:40:08.559Z,58461.84
2022-10-19T20:42:35.705Z,58470.13
2022-10-19T20:45:02.735Z,58513.59
2022-10-19T20:47:29.426Z,58432.84
2022-10-19T20:49:55.872Z,58445.28
2022-10-19T20:52:22.314Z,58470.13
2022-10-19T20:54:49.224Z,58414.22
2022-10-19T20:57:15.956Z,58416.28
2022-10-19T20:59:43.780Z,58414.22
2022-10-19T21:02:11.026Z,58358.34
2022-10-19T21:04:37.851Z,58428.72
2022-10-19T21:07:04.907Z,58362.47
2022-10-19T21:09:31.496Z,58764.06
2022-10-19T21:11:58.119Z,58579.81
2022-10-19T21:14:28.418Z,58401.81
2022-10-19T21:16:59.113Z,58420.44
2022-10-19T21:19:27.003Z,58420.44
2022-10-19T21:21:57.120Z,58397.66
2022-10-19T21:24:26.102Z,58426.63
2022-10-19T21:26:52.847Z,58364.53
2022-10-19T21:29:19.920Z,58428.72
2022-10-19T21:31:49.215Z,58397.66
2022-10-19T21:34:21.827Z,58395.59
2022-10-19T21:36:48.498Z,58414.22
2022-10-19T21:39:15.079Z,58391.44
2022-10-19T21:41:41.447Z,58391.44
2022-10-19T21:44:07.840Z,58337.63
2022-10-19T21:46:34.263Z,58598.44
2022-10-19T21:49:00.723Z,58399.72
2022-10-19T21:51:36.084Z,58416.28
2022-10-19T21:54:04.261Z,58428.72
2022-10-19T21:56:30.903Z,58395.59
2022-10-19T21:58:58.053Z,58416.28
2022-10-19T22:01:26.899Z,58445.28
2022-10-19T22:04:01.698Z,58445.28
2022-10-19T22:06:29.748Z,58439.06
2022-10-19T22:08:57.459Z,58426.63
2022-10-19T22:11:24.467Z,58372.81
2022-10-19T22:13:58.984Z,58397.66
2022-10-19T22:16:26.352Z,58478.38
2022-10-19T22:18:52.882Z,58453.56
2022-10-19T22:21:22.940Z,58428.72
2022-10-19T22:23:54.272Z,58422.50
2022-10-19T22:26:23.674Z,58405.94
2022-10-19T22:28:50.153Z,58515.66
2022-10-19T22:31:16.610Z,58902.78
2022-10-19T22:33:42.992Z,58370.75
2022-10-19T22:36:10.969Z,58463.91
2022-10-19T22:38:37.685Z,58445.28
2022-10-19T22:41:04.074Z,58451.47
2022-10-19T22:43:30.461Z,58474.25
2022-10-19T22:45:57.040Z,58867.56
2022-10-19T22:48:23.427Z,58420.44
2022-10-19T22:50:53.061Z,58677.13
2022-10-19T22:53:21.342Z,58453.56
2022-10-19T22:55:47.910Z,58403.88
2022-10-19T22:58:14.667Z,58455.63
2022-10-19T23:00:41.181Z,58619.16
2022-10-19T23:03:07.728Z,58366.59
2022-10-19T23:05:34.113Z,58393.53
2022-10-19T23:08:00.587Z,58372.81
2022-10-19T23:10:27.052Z,58418.34
2022-10-19T23:12:53.870Z,58749.56
2022-10-19T23:15:21.268Z,58383.16
2022-10-19T23:17:47.817Z,58366.59
2022-10-19T23:20:14.518Z,58366.59
2022-10-19T23:22:40.948Z,58306.59
2022-10-19T23:25:08.423Z,58300.38
2022-10-19T23:27:35.221Z,58428.72
2022-10-19T23:30:03.765Z,58432.84
2022-10-19T23:32:30.310Z,58399.72
2022-10-19T23:34:56.795Z,58463.91
2022-10-19T23:37:23.251Z,58387.31
2022-10-19T23:39:49.682Z,58362.47
2022-10-19T23:42:16.065Z,58534.28
2022-10-19T23:44:42.513Z,58327.28
2022-10-19T23:47:08.914Z,58327.28
2022-10-19T23:49:35.282Z,58319.00
2022-10-19T23:52:01.953Z,58366.59
2022-10-19T23:54:28.372Z,58395.59
2022-10-19T23:56:54.765Z,58403.88
2022-10-19T23:59:21.247Z,58379.03
